Time;durP1;ratioP1;P1;durP2;ratioP2;P2;SDS_P1;SDS_P2;PMS_P1;PMS_P2;Temp;Humidity;BMP_temperature;BMP_pressure;BME280_temperature;BME280_humidity;BME280_pressure;Samples;Min_cycle;Max_cycle;Signal;HPM_P1;HPM_P2
2022/07/05 00:01:59;;;;;;;2.63;1.80;;;;;;;;;;5091464;28;20048;-84
2022/07/05 00:04:25;;;;;;;3.20;1.98;;;;;;;;;;5091458;28;20024;-84
2022/07/05 00:09:34;;;;;;;3.80;2.20;;;;;;;;;;5095395;28;20039;-83
2022/07/05 00:11:59;;;;;;;2.47;1.80;;;;;;;;;;5095421;28;20035;-84
2022/07/05 00:14:25;;;;;;;4.53;2.00;;;;;;;;;;5095511;28;20055;-83
2022/07/05 00:16:50;;;;;;;2.40;1.90;;;;;;;;;;5095178;28;20036;-84
2022/07/05 00:19:16;;;;;;;3.53;2.00;;;;;;;;;;5095404;28;20032;-86
2022/07/05 00:21:41;;;;;;;2.70;1.90;;;;;;;;;;5093444;28;20028;-85
2022/07/05 00:24:07;;;;;;;2.63;1.77;;;;;;;;;;5095247;28;20028;-84
2022/07/05 00:26:32;;;;;;;1.80;1.58;;;;;;;;;;5095425;28;20055;-83
2022/07/05 00:28:58;;;;;;;2.83;2.28;;;;;;;;;;5094909;28;20089;-85
2022/07/05 00:31:23;;;;;;;2.65;2.20;;;;;;;;;;5095576;28;20050;-85
2022/07/05 00:33:49;;;;;;;4.10;2.60;;;;;;;;;;5094875;28;20028;-84
2022/07/05 00:36:14;;;;;;;2.92;2.30;;;;;;;;;;5093686;28;20028;-84
2022/07/05 00:38:39;;;;;;;3.35;2.58;;;;;;;;;;5094112;28;20028;-85
2022/07/05 00:41:05;;;;;;;2.58;2.15;;;;;;;;;;5094948;28;20056;-85
2022/07/05 00:43:30;;;;;;;3.60;2.60;;;;;;;;;;5095088;28;20028;-84
2022/07/05 00:45:56;;;;;;;3.58;2.63;;;;;;;;;;5095204;28;20429;-83
2022/07/05 00:48:22;;;;;;;3.50;2.72;;;;;;;;;;5093682;28;20031;-83
2022/07/05 00:50:50;;;;;;;4.20;2.45;;;;;;;;;;5093194;28;20464;-86
2022/07/05 00:53:15;;;;;;;7.38;3.33;;;;;;;;;;5093229;28;20048;-84
2022/07/05 00:55:43;;;;;;;3.45;2.55;;;;;;;;;;5093294;28;20441;-85
2022/07/05 00:58:10;;;;;;;3.25;2.42;;;;;;;;;;5094626;28;20073;-84
2022/07/05 01:00:35;;;;;;;3.63;2.63;;;;;;;;;;5094596;28;20016;-83
2022/07/05 01:03:01;;;;;;;2.97;2.65;;;;;;;;;;5094195;28;20050;-84
2022/07/05 01:05:27;;;;;;;2.95;2.40;;;;;;;;;;5091828;28;20070;-84
2022/07/05 01:07:53;;;;;;;3.65;2.75;;;;;;;;;;5092666;28;20054;-84
2022/07/05 01:10:19;;;;;;;3.45;2.83;;;;;;;;;;5092855;28;20027;-84
2022/07/05 01:12:45;;;;;;;3.47;2.30;;;;;;;;;;5094268;28;20464;-85
2022/07/05 01:15:11;;;;;;;5.65;2.60;;;;;;;;;;5094135;28;20024;-85
2022/07/05 01:17:37;;;;;;;6.25;3.10;;;;;;;;;;5093821;28;20081;-84
2022/07/05 01:20:08;;;;;;;5.30;2.65;;;;;;;;;;5093050;28;20020;-83
2022/07/05 01:23:01;;;;;;;4.22;2.70;;;;;;;;;;5092929;28;20020;-85
2022/07/05 01:25:28;;;;;;;5.28;2.78;;;;;;;;;;5091531;28;20100;-84
2022/07/05 01:27:55;;;;;;;3.22;2.22;;;;;;;;;;5091485;28;20039;-85
2022/07/05 01:30:20;;;;;;;3.15;2.85;;;;;;;;;;5093879;28;20070;-84
2022/07/05 01:32:46;;;;;;;3.03;2.50;;;;;;;;;;5092430;28;20110;-83
2022/07/05 01:35:13;;;;;;;3.10;2.60;;;;;;;;;;5093577;28;20031;-85
2022/07/05 01:37:38;;;;;;;3.92;2.80;;;;;;;;;;5089923;28;20024;-84
2022/07/05 01:40:05;;;;;;;4.60;3.00;;;;;;;;;;5094097;28;20099;-83
2022/07/05 01:42:31;;;;;;;5.53;2.95;;;;;;;;;;5093665;28;20024;-84
2022/07/05 01:44:56;;;;;;;3.70;3.00;;;;;;;;;;5093733;28;20019;-83
2022/07/05 01:47:23;;;;;;;3.90;2.90;;;;;;;;;;5093573;28;20087;-84
2022/07/05 01:49:52;;;;;;;4.20;3.22;;;;;;;;;;5092106;28;20024;-83
2022/07/05 01:52:24;;;;;;;2.63;2.43;;;;;;;;;;5091989;28;20031;-84
2022/07/05 01:54:49;;;;;;;4.32;3.20;;;;;;;;;;5089934;28;20074;-84
2022/07/05 01:57:15;;;;;;;5.45;3.03;;;;;;;;;;5091015;28;20052;-84
2022/07/05 01:59:40;;;;;;;3.30;3.00;;;;;;;;;;5093646;28;20020;-84
2022/07/05 02:02:07;;;;;;;4.97;3.03;;;;;;;;;;5093017;28;20137;-84
2022/07/05 02:04:34;;;;;;;3.20;2.90;;;;;;;;;;5093543;28;20537;-84
2022/07/05 02:07:03;;;;;;;4.63;3.47;;;;;;;;;;5093226;28;20027;-85
2022/07/05 02:09:28;;;;;;;5.85;3.20;;;;;;;;;;5092047;28;20028;-83
2022/07/05 02:11:54;;;;;;;5.18;3.00;;;;;;;;;;5088194;28;20047;-83
2022/07/05 02:14:19;;;;;;;3.70;2.70;;;;;;;;;;5091217;28;20353;-84
2022/07/05 02:16:45;;;;;;;4.38;3.05;;;;;;;;;;5089674;28;20035;-83
2022/07/05 02:19:10;;;;;;;3.30;3.00;;;;;;;;;;5090837;28;20023;-83
2022/07/05 02:21:36;;;;;;;3.80;3.40;;;;;;;;;;5091491;28;20020;-84
2022/07/05 02:24:01;;;;;;;4.40;3.33;;;;;;;;;;5082748;28;20074;-83
2022/07/05 02:26:27;;;;;;;3.25;2.88;;;;;;;;;;5087879;28;20036;-83
2022/07/05 02:28:52;;;;;;;3.85;3.45;;;;;;;;;;5088540;28;20425;-84
2022/07/05 02:31:20;;;;;;;3.92;3.22;;;;;;;;;;5088713;28;20042;-83
2022/07/05 02:33:45;;;;;;;4.03;3.20;;;;;;;;;;5090498;28;20036;-83
2022/07/05 02:36:12;;;;;;;4.03;3.25;;;;;;;;;;5089490;28;20753;-83
2022/07/05 02:38:39;;;;;;;3.85;3.45;;;;;;;;;;5090845;28;20543;-83
2022/07/05 02:41:08;;;;;;;3.78;3.00;;;;;;;;;;5090083;28;20468;-84
2022/07/05 02:43:34;;;;;;;3.70;3.20;;;;;;;;;;5091284;28;20023;-85
2022/07/05 02:46:00;;;;;;;3.38;3.08;;;;;;;;;;5092079;28;20059;-83
2022/07/05 02:48:26;;;;;;;3.85;3.30;;;;;;;;;;5091922;28;20102;-83
2022/07/05 02:50:51;;;;;;;3.55;3.17;;;;;;;;;;5092137;28;20190;-83
2022/07/05 02:53:17;;;;;;;3.88;3.03;;;;;;;;;;5090284;28;20044;-83
2022/07/05 02:55:42;;;;;;;4.00;3.60;;;;;;;;;;5092087;28;20383;-83
2022/07/05 02:58:08;;;;;;;6.90;3.40;;;;;;;;;;5090975;28;20020;-83
2022/07/05 03:00:33;;;;;;;4.45;3.33;;;;;;;;;;5091707;28;20027;-82
2022/07/05 03:02:58;;;;;;;4.70;3.60;;;;;;;;;;5092132;28;20043;-84
2022/07/05 03:05:24;;;;;;;4.60;3.15;;;;;;;;;;5091534;28;20028;-83
2022/07/05 03:07:49;;;;;;;3.45;3.08;;;;;;;;;;5088793;28;20031;-82
2022/07/05 03:10:15;;;;;;;3.75;3.30;;;;;;;;;;5090145;28;20031;-82
2022/07/05 03:12:40;;;;;;;3.60;3.30;;;;;;;;;;5091334;28;20028;-83
2022/07/05 03:15:06;;;;;;;3.25;2.83;;;;;;;;;;5091372;28;20107;-83
2022/07/05 03:17:32;;;;;;;3.30;2.90;;;;;;;;;;5092152;28;20495;-83
2022/07/05 03:19:58;;;;;;;5.50;3.38;;;;;;;;;;5091232;28;20032;-83
2022/07/05 03:22:23;;;;;;;4.45;3.20;;;;;;;;;;5090365;28;20364;-84
2022/07/05 03:24:49;;;;;;;4.43;3.22;;;;;;;;;;5091624;28;20023;-83
2022/07/05 03:27:14;;;;;;;4.40;3.17;;;;;;;;;;5089213;28;20074;-83
2022/07/05 03:29:39;;;;;;;3.33;2.70;;;;;;;;;;5091539;28;20103;-83
2022/07/05 03:32:05;;;;;;;3.70;2.70;;;;;;;;;;5090893;28;20080;-82
2022/07/05 03:34:31;;;;;;;2.92;2.53;;;;;;;;;;5091221;28;20051;-84
2022/07/05 03:36:56;;;;;;;4.75;2.50;;;;;;;;;;5091051;28;20125;-83
2022/07/05 03:39:22;;;;;;;3.17;2.78;;;;;;;;;;5089819;28;20361;-83
2022/07/05 03:41:48;;;;;;;3.80;2.83;;;;;;;;;;5090786;28;20016;-83
2022/07/05 03:44:13;;;;;;;5.13;2.80;;;;;;;;;;5089407;28;20031;-83
2022/07/05 03:46:39;;;;;;;5.57;3.03;;;;;;;;;;5091564;28;20079;-83
2022/07/05 03:49:04;;;;;;;3.17;2.85;;;;;;;;;;5090855;28;20169;-84
2022/07/05 03:51:30;;;;;;;3.72;2.90;;;;;;;;;;5090118;28;20048;-84
2022/07/05 03:53:55;;;;;;;2.97;2.72;;;;;;;;;;5091045;28;20040;-84
2022/07/05 03:56:22;;;;;;;3.35;2.95;;;;;;;;;;5090519;28;20077;-84
2022/07/05 03:58:49;;;;;;;4.15;3.20;;;;;;;;;;5091076;28;20077;-84
2022/07/05 04:01:15;;;;;;;3.47;2.90;;;;;;;;;;5090041;28;20035;-84
2022/07/05 04:03:40;;;;;;;4.45;2.88;;;;;;;;;;5090940;28;20171;-84
2022/07/05 04:06:08;;;;;;;4.40;2.50;;;;;;;;;;5091164;28;20063;-85
2022/07/05 04:08:33;;;;;;;2.90;2.60;;;;;;;;;;5090867;28;20379;-84
2022/07/05 04:10:59;;;;;;;24.27;21.17;;;;;;;;;;5090973;28;20016;-84
2022/07/05 04:13:24;;;;;;;3.38;2.95;;;;;;;;;;5090717;28;20494;-82
2022/07/05 04:15:49;;;;;;;4.90;2.40;;;;;;;;;;5089411;28;20024;-83
2022/07/05 04:18:15;;;;;;;6.05;2.72;;;;;;;;;;5089876;28;20031;-85
2022/07/05 04:20:40;;;;;;;2.42;1.95;;;;;;;;;;5090862;28;20020;-84
2022/07/05 04:23:06;;;;;;;2.28;1.90;;;;;;;;;;5090830;28;20028;-84
2022/07/05 04:25:31;;;;;;;3.95;2.13;;;;;;;;;;5087352;28;20412;-84
2022/07/05 04:27:57;;;;;;;3.45;2.17;;;;;;;;;;5088869;28;20020;-84
2022/07/05 04:30:24;;;;;;;2.75;2.03;;;;;;;;;;5086301;28;20103;-86
2022/07/05 04:32:50;;;;;;;4.40;3.58;;;;;;;;;;5086764;28;20488;-84
2022/07/05 04:35:16;;;;;;;4.57;2.97;;;;;;;;;;5089126;28;20048;-84
2022/07/05 04:37:42;;;;;;;3.17;2.30;;;;;;;;;;5088679;28;20020;-84
2022/07/05 04:40:11;;;;;;;3.05;2.25;;;;;;;;;;5088028;28;20031;-83
2022/07/05 04:42:36;;;;;;;3.33;2.40;;;;;;;;;;5088819;28;20028;-83
2022/07/05 04:45:03;;;;;;;6.28;2.65;;;;;;;;;;5088317;28;20035;-82
2022/07/05 04:47:29;;;;;;;24.52;22.02;;;;;;;;;;5089859;28;20032;-85
2022/07/05 04:49:57;;;;;;;6.38;4.85;;;;;;;;;;5087681;28;20028;-83
2022/07/05 04:52:23;;;;;;;4.95;3.90;;;;;;;;;;5087032;28;20024;-84
2022/07/05 04:54:48;;;;;;;3.00;2.30;;;;;;;;;;5089449;28;20043;-84
2022/07/05 04:57:14;;;;;;;3.72;2.60;;;;;;;;;;5093018;28;20450;-84
2022/07/05 04:59:39;;;;;;;3.67;2.47;;;;;;;;;;5092091;28;20028;-83
2022/07/05 05:02:04;;;;;;;3.22;2.28;;;;;;;;;;5092901;28;20418;-85
2022/07/05 05:04:30;;;;;;;4.97;2.83;;;;;;;;;;5090967;28;20023;-85
2022/07/05 05:06:55;;;;;;;3.47;2.58;;;;;;;;;;5093917;28;20051;-85
2022/07/05 05:09:21;;;;;;;5.70;2.63;;;;;;;;;;5091489;28;20032;-85
2022/07/05 05:12:11;;;;;;;4.53;2.67;;;;;;;;;;5088993;28;20024;-83
2022/07/05 05:14:37;;;;;;;5.88;3.00;;;;;;;;;;5093452;28;20103;-83
2022/07/05 05:17:02;;;;;;;3.70;2.80;;;;;;;;;;5090274;28;20450;-82
2022/07/05 05:19:28;;;;;;;5.97;2.88;;;;;;;;;;5091366;28;20020;-85
2022/07/05 05:21:53;;;;;;;5.60;3.13;;;;;;;;;;5092419;28;20360;-82
2022/07/05 05:24:19;;;;;;;11.82;9.13;;;;;;;;;;5092563;28;20097;-82
2022/07/05 05:26:44;;;;;;;19.95;16.40;;;;;;;;;;5090944;28;20045;-83
2022/07/05 05:29:09;;;;;;;11.35;9.00;;;;;;;;;;5089897;28;20059;-82
2022/07/05 05:31:35;;;;;;;3.33;2.78;;;;;;;;;;5089789;28;20142;-86
2022/07/05 05:34:00;;;;;;;7.47;3.10;;;;;;;;;;5092649;28;20442;-82
2022/07/05 05:36:26;;;;;;;4.20;2.70;;;;;;;;;;5094381;28;20472;-86
2022/07/05 05:38:51;;;;;;;6.63;2.83;;;;;;;;;;5091671;28;20148;-85
2022/07/05 05:41:16;;;;;;;5.35;3.30;;;;;;;;;;5091896;28;20048;-86
2022/07/05 05:43:42;;;;;;;5.78;3.20;;;;;;;;;;5092195;28;20093;-85
2022/07/05 05:46:07;;;;;;;6.75;2.90;;;;;;;;;;5093860;28;20047;-84
2022/07/05 05:48:33;;;;;;;4.00;3.15;;;;;;;;;;5093025;28;20032;-86
2022/07/05 05:50:59;;;;;;;4.57;2.95;;;;;;;;;;5092526;28;20032;-87
2022/07/05 05:53:25;;;;;;;9.13;3.40;;;;;;;;;;5093699;28;20169;-86
2022/07/05 05:55:50;;;;;;;7.45;2.90;;;;;;;;;;5093820;28;20107;-86
2022/07/05 05:58:21;;;;;;;4.50;3.00;;;;;;;;;;5091730;28;20118;-85
2022/07/05 06:00:48;;;;;;;25.92;18.45;;;;;;;;;;5093694;28;20016;-84
2022/07/05 06:03:15;;;;;;;8.25;5.40;;;;;;;;;;5092194;28;20043;-84
2022/07/05 06:05:40;;;;;;;6.07;4.70;;;;;;;;;;5092684;28;20036;-85
2022/07/05 06:08:06;;;;;;;6.93;3.38;;;;;;;;;;5094376;28;20038;-86
2022/07/05 06:10:32;;;;;;;7.60;3.38;;;;;;;;;;5092354;28;20074;-85
2022/07/05 06:13:00;;;;;;;5.30;2.92;;;;;;;;;;5088317;28;20028;-85
2022/07/05 06:15:27;;;;;;;6.00;2.83;;;;;;;;;;5091257;28;20118;-84
2022/07/05 06:17:52;;;;;;;3.53;3.08;;;;;;;;;;5093424;28;20099;-86
2022/07/05 06:20:23;;;;;;;6.75;3.40;;;;;;;;;;5091227;28;20544;-85
2022/07/05 06:22:49;;;;;;;3.90;2.70;;;;;;;;;;5091846;28;20028;-85
2022/07/05 06:25:15;;;;;;;4.22;2.83;;;;;;;;;;5086317;28;20028;-85
2022/07/05 06:27:47;;;;;;;5.22;3.13;;;;;;;;;;5092338;28;20038;-85
2022/07/05 06:30:14;;;;;;;7.28;3.13;;;;;;;;;;5092713;28;20099;-86
2022/07/05 06:32:40;;;;;;;5.30;3.53;;;;;;;;;;5088295;28;20103;-84
2022/07/05 06:35:06;;;;;;;4.85;2.75;;;;;;;;;;5089449;28;20108;-85
2022/07/05 06:37:52;;;;;;;7.38;4.65;;;;;;;;;;5093667;28;20472;-86
2022/07/05 06:40:21;;;;;;;8.45;6.65;;;;;;;;;;5090996;28;20024;-84
2022/07/05 06:42:54;;;;;;;4.35;3.38;;;;;;;;;;5090537;28;20106;-92
2022/07/05 06:45:20;;;;;;;5.20;3.40;;;;;;;;;;5093066;28;20070;-85
2022/07/05 06:47:57;;;;;;;7.50;3.85;;;;;;;;;;5087734;28;20048;-85
2022/07/05 06:50:23;;;;;;;5.72;3.10;;;;;;;;;;5089950;28;20414;-84
2022/07/05 06:52:49;;;;;;;4.15;2.55;;;;;;;;;;5089882;28;20037;-86
2022/07/05 06:55:14;;;;;;;4.75;2.95;;;;;;;;;;5092945;28;20028;-85
2022/07/05 06:57:39;;;;;;;9.10;3.47;;;;;;;;;;5089520;28;20028;-85
2022/07/05 07:00:05;;;;;;;4.38;2.85;;;;;;;;;;5091839;28;20024;-85
2022/07/05 07:02:31;;;;;;;5.47;3.03;;;;;;;;;;5091763;28;20380;-85
2022/07/05 07:04:57;;;;;;;4.70;3.05;;;;;;;;;;5091275;28;20028;-85
2022/07/05 07:10:14;;;;;;;6.45;3.30;;;;;;;;;;5082378;28;20036;-86
2022/07/05 07:12:39;;;;;;;11.68;3.50;;;;;;;;;;5090551;28;20028;-88
2022/07/05 07:15:05;;;;;;;5.65;3.10;;;;;;;;;;5087738;28;20029;-86
2022/07/05 07:17:30;;;;;;;4.20;2.92;;;;;;;;;;5088705;28;20020;-85
2022/07/05 07:19:56;;;;;;;5.65;3.33;;;;;;;;;;5092232;28;20502;-88
2022/07/05 07:22:21;;;;;;;5.40;3.13;;;;;;;;;;5091349;28;20594;-86
2022/07/05 07:24:47;;;;;;;4.68;2.85;;;;;;;;;;5088050;28;20032;-85
2022/07/05 07:27:12;;;;;;;6.32;3.10;;;;;;;;;;5091668;28;20027;-86
2022/07/05 07:29:39;;;;;;;4.35;2.95;;;;;;;;;;5093424;28;20127;-85
2022/07/05 07:32:06;;;;;;;5.10;3.38;;;;;;;;;;5089445;28;20435;-86
2022/07/05 07:34:33;;;;;;;9.50;2.88;;;;;;;;;;5091488;28;20353;-85
2022/07/05 07:36:59;;;;;;;10.57;3.92;;;;;;;;;;5091965;28;20547;-87
2022/07/05 07:39:25;;;;;;;6.70;3.30;;;;;;;;;;5091999;28;20108;-87
2022/07/05 07:41:52;;;;;;;5.30;2.75;;;;;;;;;;5091659;28;20055;-86
2022/07/05 07:44:17;;;;;;;7.22;3.05;;;;;;;;;;5089355;28;20032;-88
2022/07/05 07:46:43;;;;;;;4.57;3.17;;;;;;;;;;5087819;28;20043;-85
2022/07/05 07:49:09;;;;;;;5.15;2.92;;;;;;;;;;5091151;28;20024;-84
2022/07/05 07:51:35;;;;;;;6.95;3.20;;;;;;;;;;5091589;28;20035;-88
2022/07/05 07:54:00;;;;;;;4.82;3.00;;;;;;;;;;5090438;28;20040;-87
2022/07/05 07:56:26;;;;;;;5.75;4.88;;;;;;;;;;5092290;28;20024;-88
2022/07/05 07:58:52;;;;;;;7.75;3.05;;;;;;;;;;5090776;28;20061;-87
2022/07/05 08:01:18;;;;;;;6.25;2.97;;;;;;;;;;5090389;28;20441;-87
2022/07/05 08:03:44;;;;;;;5.95;3.20;;;;;;;;;;5090925;28;20028;-89
2022/07/05 08:06:11;;;;;;;8.18;3.65;;;;;;;;;;5091108;28;20108;-88
2022/07/05 08:08:41;;;;;;;7.25;3.30;;;;;;;;;;5086515;28;20094;-88
2022/07/05 08:11:08;;;;;;;7.00;3.28;;;;;;;;;;5088712;28;20454;-87
2022/07/05 08:13:34;;;;;;;6.28;3.10;;;;;;;;;;5090634;28;20391;-86
2022/07/05 08:16:00;;;;;;;8.63;3.50;;;;;;;;;;5091646;28;20024;-87
2022/07/05 08:23:54;;;;;;;4.60;3.35;;;;;;;;;;5090126;28;20031;-89
2022/07/05 08:26:20;;;;;;;5.18;3.38;;;;;;;;;;5087895;28;20035;-87
2022/07/05 08:28:46;;;;;;;6.70;3.58;;;;;;;;;;5093035;28;20055;-86
2022/07/05 08:31:11;;;;;;;5.45;3.28;;;;;;;;;;5095223;28;20042;-86
2022/07/05 08:33:37;;;;;;;5.10;3.38;;;;;;;;;;5094949;28;20402;-86
2022/07/05 08:36:03;;;;;;;9.88;3.47;;;;;;;;;;5093625;28;20028;-87
2022/07/05 08:38:28;;;;;;;6.38;3.10;;;;;;;;;;5093740;28;20085;-87
2022/07/05 08:40:56;;;;;;;5.30;3.20;;;;;;;;;;5093881;28;20050;-84
2022/07/05 08:43:23;;;;;;;4.65;3.40;;;;;;;;;;5094047;28;20480;-85
2022/07/05 08:45:53;;;;;;;5.18;3.20;;;;;;;;;;5094757;28;20982;-85
2022/07/05 08:48:20;;;;;;;10.63;3.25;;;;;;;;;;5091540;28;20020;-84
2022/07/05 08:50:48;;;;;;;6.15;3.30;;;;;;;;;;5090061;28;20456;-85
2022/07/05 08:53:21;;;;;;;4.60;3.00;;;;;;;;;;5091224;28;20054;-89
2022/07/05 08:55:47;;;;;;;8.85;3.20;;;;;;;;;;5089471;28;20572;-82
2022/07/05 08:58:12;;;;;;;8.25;3.10;;;;;;;;;;5094819;28;20081;-84
2022/07/05 09:00:42;;;;;;;6.88;3.20;;;;;;;;;;5094894;28;20016;-88
2022/07/05 09:03:08;;;;;;;6.80;3.08;;;;;;;;;;5089421;28;20080;-86
2022/07/05 09:05:45;;;;;;;5.18;3.55;;;;;;;;;;5095947;28;20020;-84
2022/07/05 09:08:17;;;;;;;4.68;2.90;;;;;;;;;;5095850;28;20087;-85
2022/07/05 09:10:43;;;;;;;3.78;2.90;;;;;;;;;;5094704;28;20830;-84
2022/07/05 09:13:08;;;;;;;8.15;3.75;;;;;;;;;;5089540;28;20052;-86
2022/07/05 09:15:37;;;;;;;6.40;3.15;;;;;;;;;;5096087;28;20081;-85
2022/07/05 09:18:03;;;;;;;5.65;3.50;;;;;;;;;;5093201;28;20036;-87
2022/07/05 09:20:30;;;;;;;4.82;2.92;;;;;;;;;;5094216;28;20043;-85
2022/07/05 09:22:57;;;;;;;6.40;3.58;;;;;;;;;;5094180;28;20040;-89
2022/07/05 09:25:28;;;;;;;4.90;2.92;;;;;;;;;;5087880;28;20034;-88
2022/07/05 09:27:56;;;;;;;4.43;3.10;;;;;;;;;;5094583;28;20036;-84
2022/07/05 09:30:39;;;;;;;7.95;3.33;;;;;;;;;;5095965;28;20038;-87
2022/07/05 09:33:07;;;;;;;6.78;3.08;;;;;;;;;;5095463;28;20059;-88
2022/07/05 09:35:34;;;;;;;12.40;3.67;;;;;;;;;;5095710;28;20073;-84
2022/07/05 09:38:03;;;;;;;3.13;2.70;;;;;;;;;;5096364;28;20028;-85
2022/07/05 09:40:30;;;;;;;4.07;3.05;;;;;;;;;;5092619;28;20028;-84
2022/07/05 09:43:12;;;;;;;5.47;2.97;;;;;;;;;;5091107;28;20055;-84
2022/07/05 09:45:38;;;;;;;17.77;4.18;;;;;;;;;;5084160;28;20020;-85
2022/07/05 09:48:06;;;;;;;6.18;3.17;;;;;;;;;;5091237;28;20376;-84
2022/07/05 09:50:36;;;;;;;6.35;3.03;;;;;;;;;;5092746;28;20467;-84
2022/07/05 09:53:02;;;;;;;5.45;2.85;;;;;;;;;;5091649;28;20070;-85
2022/07/05 09:55:27;;;;;;;5.18;3.30;;;;;;;;;;5090858;28;20482;-86
2022/07/05 09:57:54;;;;;;;5.05;3.05;;;;;;;;;;5088132;28;20111;-86
2022/07/05 10:00:21;;;;;;;4.28;2.83;;;;;;;;;;5094043;28;20476;-86
2022/07/05 10:03:01;;;;;;;5.95;2.47;;;;;;;;;;5087366;28;20027;-85
2022/07/05 10:05:32;;;;;;;4.55;2.90;;;;;;;;;;5095429;28;20027;-86
2022/07/05 10:08:02;;;;;;;3.60;3.00;;;;;;;;;;5091231;28;20035;-85
2022/07/05 10:10:31;;;;;;;;;;;;;;;;;;5087077;28;20079;-84
2022/07/05 10:12:59;;;;;;;7.32;3.15;;;;;;;;;;5089532;28;19916;-87
2022/07/05 10:15:31;;;;;;;6.70;3.60;;;;;;;;;;5093330;28;20028;-89
2022/07/05 10:18:02;;;;;;;6.00;3.30;;;;;;;;;;5094689;28;20024;-88
2022/07/05 10:20:40;;;;;;;6.85;3.40;;;;;;;;;;5091227;28;20020;-86
2022/07/05 10:23:17;;;;;;;6.18;3.42;;;;;;;;;;5090068;28;20496;-84
2022/07/05 10:25:48;;;;;;;4.15;2.70;;;;;;;;;;5092684;28;20062;-83
2022/07/05 10:28:14;;;;;;;3.65;2.75;;;;;;;;;;5092564;28;20039;-83
2022/07/05 10:30:40;;;;;;;6.57;3.40;;;;;;;;;;5091937;28;20107;-84
2022/07/05 10:33:07;;;;;;;5.45;3.78;;;;;;;;;;5089515;28;20537;-85
2022/07/05 10:35:36;;;;;;;6.20;2.80;;;;;;;;;;5089786;28;20491;-87
2022/07/05 10:38:02;;;;;;;8.68;3.33;;;;;;;;;;5091021;28;20024;-85
2022/07/05 10:40:31;;;;;;;7.85;3.65;;;;;;;;;;5092301;28;20026;-85
2022/07/05 10:43:01;;;;;;;16.80;4.85;;;;;;;;;;5093216;28;20027;-84
2022/07/05 10:45:47;;;;;;;4.43;3.22;;;;;;;;;;5092528;28;20032;-89
2022/07/05 10:48:29;;;;;;;7.90;3.03;;;;;;;;;;5093523;28;20024;-89
2022/07/05 10:50:59;;;;;;;4.50;2.83;;;;;;;;;;5092380;28;20027;-87
2022/07/05 10:53:32;;;;;;;5.20;3.25;;;;;;;;;;5092087;28;20044;-87
2022/07/05 10:56:04;;;;;;;3.67;2.97;;;;;;;;;;5091971;28;20024;-85
2022/07/05 10:58:37;;;;;;;4.88;2.90;;;;;;;;;;5092301;28;20020;-86
2022/07/05 11:01:12;;;;;;;8.45;3.42;;;;;;;;;;5090408;28;20056;-84
2022/07/05 11:03:42;;;;;;;3.70;2.60;;;;;;;;;;5091449;28;21300;-85
2022/07/05 11:06:18;;;;;;;4.60;2.63;;;;;;;;;;5088935;28;20027;-83
2022/07/05 11:08:58;;;;;;;5.22;3.00;;;;;;;;;;5091669;28;20357;-86
2022/07/05 11:11:28;;;;;;;3.03;2.60;;;;;;;;;;5089284;28;20523;-85
2022/07/05 11:13:54;;;;;;;;;;;;;;;;;;5088193;28;20050;-85
2022/07/05 11:16:24;;;;;;;2.97;2.60;;;;;;;;;;5090021;28;19912;-90
2022/07/05 11:19:03;;;;;;;3.40;2.63;;;;;;;;;;5086079;28;20111;-88
2022/07/05 11:21:29;;;;;;;;;;;;;;;;;;5090087;28;20038;-89
2022/07/05 11:24:18;;;;;;;5.60;2.83;;;;;;;;;;5089331;28;20292;-85
2022/07/05 11:26:45;;;;;;;4.60;2.90;;;;;;;;;;5089350;28;20375;-87
2022/07/05 11:29:51;;;;;;;4.53;3.30;;;;;;;;;;5085550;28;20484;-90
2022/07/05 11:32:21;;;;;;;4.68;2.85;;;;;;;;;;5089889;28;20523;-91
2022/07/05 11:34:52;;;;;;;5.30;2.63;;;;;;;;;;5090064;28;20024;-92
2022/07/05 11:37:28;;;;;;;4.63;3.15;;;;;;;;;;5088008;28;20102;-85
2022/07/05 11:40:11;;;;;;;3.92;2.80;;;;;;;;;;5088852;28;20020;-85
2022/07/05 11:42:41;;;;;;;5.78;3.10;;;;;;;;;;5088900;28;20023;-85
2022/07/05 11:45:08;;;;;;;4.00;2.80;;;;;;;;;;5089622;28;20026;-87
2022/07/05 11:47:34;;;;;;;6.97;2.88;;;;;;;;;;5091126;28;20058;-86
2022/07/05 11:49:59;;;;;;;3.50;3.00;;;;;;;;;;5088659;28;20113;-86
2022/07/05 11:52:33;;;;;;;3.00;2.50;;;;;;;;;;5090111;28;20040;-87
2022/07/05 11:55:00;;;;;;;7.53;3.15;;;;;;;;;;5091505;28;20129;-86
2022/07/05 11:57:25;;;;;;;3.67;2.67;;;;;;;;;;5091870;28;20047;-89
2022/07/05 11:59:52;;;;;;;4.60;3.05;;;;;;;;;;5091622;28;20055;-88
2022/07/05 12:02:18;;;;;;;3.55;2.95;;;;;;;;;;5091990;28;20490;-87
2022/07/05 12:05:01;;;;;;;3.75;2.40;;;;;;;;;;5090210;28;20099;-86
2022/07/05 12:07:31;;;;;;;4.15;2.70;;;;;;;;;;5089889;28;20032;-89
2022/07/05 12:12:43;;;;;;;6.63;3.60;;;;;;;;;;5089740;28;20031;-85
2022/07/05 12:15:19;;;;;;;3.70;2.53;;;;;;;;;;5091603;28;20028;-87
2022/07/05 12:17:54;;;;;;;4.05;2.60;;;;;;;;;;5091379;28;20036;-90
2022/07/05 12:20:22;;;;;;;3.10;2.38;;;;;;;;;;5089639;28;20031;-88
2022/07/05 12:22:48;;;;;;;5.30;2.60;;;;;;;;;;5089004;28;20468;-86
2022/07/05 12:25:16;;;;;;;4.28;2.70;;;;;;;;;;5090051;28;20020;-85
2022/07/05 12:27:43;;;;;;;5.43;3.00;;;;;;;;;;5091920;28;20031;-85
2022/07/05 12:30:11;;;;;;;2.90;2.60;;;;;;;;;;5091070;28;20086;-86
2022/07/05 12:33:05;;;;;;;6.30;3.08;;;;;;;;;;5090404;28;20028;-87
2022/07/05 12:35:46;;;;;;;15.70;3.78;;;;;;;;;;5089842;28;20024;-87
2022/07/05 12:38:18;;;;;;;3.35;2.85;;;;;;;;;;5091130;28;20078;-87
2022/07/05 12:40:47;;;;;;;3.83;2.75;;;;;;;;;;5090774;28;20054;-87
2022/07/05 12:43:18;;;;;;;14.57;3.47;;;;;;;;;;5091029;28;20027;-88
2022/07/05 12:46:05;;;;;;;3.72;2.58;;;;;;;;;;5091389;28;20023;-88
2022/07/05 12:48:34;;;;;;;4.95;2.55;;;;;;;;;;5089359;28;20046;-88
2022/07/05 12:51:01;;;;;;;4.80;3.03;;;;;;;;;;5087836;28;20032;-86
2022/07/05 12:58:59;;;;;;;3.13;2.83;;;;;;;;;;5090278;28;20031;-87
2022/07/05 13:01:29;;;;;;;4.40;3.10;;;;;;;;;;5090262;28;20104;-85
2022/07/05 13:04:08;;;;;;;3.40;3.05;;;;;;;;;;5091711;28;20081;-87
2022/07/05 13:06:50;;;;;;;4.28;3.33;;;;;;;;;;5090775;28;20489;-87
2022/07/05 13:09:32;;;;;;;4.28;3.15;;;;;;;;;;5089119;28;20096;-91
2022/07/05 13:12:18;;;;;;;5.13;3.00;;;;;;;;;;5089746;28;20020;-89
2022/07/05 13:14:48;;;;;;;3.55;2.72;;;;;;;;;;5090385;28;20028;-90
2022/07/05 13:17:17;;;;;;;2.97;2.72;;;;;;;;;;5094301;28;20141;-86
2022/07/05 13:19:44;;;;;;;3.47;2.85;;;;;;;;;;5094618;28;20023;-88
2022/07/05 13:22:10;;;;;;;4.38;3.00;;;;;;;;;;5092803;28;20047;-88
2022/07/05 13:24:36;;;;;;;4.47;2.80;;;;;;;;;;5094259;28;20026;-88
2022/07/05 13:27:03;;;;;;;3.17;2.88;;;;;;;;;;5094699;28;20035;-89
2022/07/05 13:29:29;;;;;;;3.33;2.90;;;;;;;;;;5094184;28;20032;-89
2022/07/05 13:31:54;;;;;;;3.65;2.83;;;;;;;;;;5093957;28;20028;-86
2022/07/05 13:34:23;;;;;;;5.88;2.90;;;;;;;;;;5094533;28;20034;-87
2022/07/05 13:36:51;;;;;;;3.90;2.72;;;;;;;;;;5090540;28;20077;-87
2022/07/05 13:39:16;;;;;;;2.90;2.60;;;;;;;;;;5091635;28;20365;-88
2022/07/05 13:41:42;;;;;;;3.45;2.80;;;;;;;;;;5093874;28;20045;-88
2022/07/05 13:44:08;;;;;;;3.53;2.60;;;;;;;;;;5091859;28;20494;-85
2022/07/05 13:46:33;;;;;;;3.42;2.60;;;;;;;;;;5092150;28;20024;-88
2022/07/05 13:48:59;;;;;;;4.35;2.67;;;;;;;;;;5093542;28;20024;-87
2022/07/05 13:51:24;;;;;;;5.80;3.40;;;;;;;;;;5093576;28;20027;-89
2022/07/05 13:53:50;;;;;;;3.92;2.67;;;;;;;;;;5093368;28;20044;-88
2022/07/05 13:56:15;;;;;;;4.55;2.80;;;;;;;;;;5092585;28;20028;-88
2022/07/05 13:58:40;;;;;;;3.28;2.88;;;;;;;;;;5090011;28;20432;-86
2022/07/05 14:01:06;;;;;;;4.50;2.90;;;;;;;;;;5093486;28;20035;-87
2022/07/05 14:03:31;;;;;;;2.90;2.70;;;;;;;;;;5093186;28;20024;-86
2022/07/05 14:05:57;;;;;;;4.18;2.83;;;;;;;;;;5093161;28;20111;-85
2022/07/05 14:08:23;;;;;;;3.88;2.80;;;;;;;;;;5093263;28;20416;-88
2022/07/05 14:10:54;;;;;;;3.17;2.60;;;;;;;;;;5091837;28;20028;-88
2022/07/05 14:13:21;;;;;;;5.03;3.13;;;;;;;;;;5123373;27;20024;-87
2022/07/05 14:15:48;;;;;;;4.28;3.00;;;;;;;;;;5093183;28;20026;-86
2022/07/05 14:18:15;;;;;;;4.72;2.60;;;;;;;;;;5092014;28;20023;-88
2022/07/05 14:20:42;;;;;;;3.83;3.13;;;;;;;;;;5093428;28;20468;-87
2022/07/05 14:23:09;;;;;;;5.07;2.97;;;;;;;;;;5092992;28;20564;-88
2022/07/05 14:25:35;;;;;;;4.03;3.00;;;;;;;;;;5092893;28;20375;-86
2022/07/05 14:28:00;;;;;;;5.75;3.00;;;;;;;;;;5092903;28;20024;-86
2022/07/05 14:30:27;;;;;;;4.85;3.22;;;;;;;;;;5091475;28;20036;-88
2022/07/05 14:32:54;;;;;;;3.63;3.13;;;;;;;;;;5093112;28;20020;-87
2022/07/05 14:35:19;;;;;;;4.20;3.00;;;;;;;;;;5091701;28;20027;-87
2022/07/05 14:37:45;;;;;;;4.00;3.10;;;;;;;;;;5093069;28;20464;-86
2022/07/05 14:40:10;;;;;;;3.67;3.00;;;;;;;;;;5092774;28;20016;-88
2022/07/05 14:42:36;;;;;;;4.32;2.63;;;;;;;;;;5091342;28;20032;-87
2022/07/05 14:45:01;;;;;;;5.00;2.95;;;;;;;;;;5091715;28;20130;-87
2022/07/05 14:47:27;;;;;;;3.50;3.17;;;;;;;;;;5091677;28;20077;-87
2022/07/05 14:49:53;;;;;;;5.32;3.33;;;;;;;;;;5090751;28;20107;-88
2022/07/05 14:52:19;;;;;;;4.63;2.80;;;;;;;;;;5092197;28;20035;-88
2022/07/05 14:54:45;;;;;;;3.85;3.30;;;;;;;;;;5092348;28;20056;-86
2022/07/05 14:57:10;;;;;;;4.97;2.90;;;;;;;;;;5092507;28;20031;-88
2022/07/05 14:59:35;;;;;;;3.63;2.90;;;;;;;;;;5092746;28;20027;-85
2022/07/05 15:02:01;;;;;;;3.33;2.90;;;;;;;;;;5092182;28;20036;-86
2022/07/05 15:04:26;;;;;;;5.20;3.30;;;;;;;;;;5092279;28;20131;-87
2022/07/05 15:06:53;;;;;;;4.93;3.03;;;;;;;;;;5092148;28;20126;-88